sensor_id;sensor_type;location;lat;lon;timestamp;P1;durP1;ratioP1;P2;durP2;ratioP2
55312;SDS011;46892;45.668;11.756;2024-02-14T00:02:20;26.60;;;16.23;;
55312;SDS011;46892;45.668;11.756;2024-02-14T00:04:47;28.57;;;13.47;;
55312;SDS011;46892;45.668;11.756;2024-02-14T00:07:13;22.30;;;14.70;;
55312;SDS011;46892;45.668;11.756;2024-02-14T00:09:39;33.93;;;15.17;;
55312;SDS011;46892;45.668;11.756;2024-02-14T00:12:05;22.80;;;13.73;;
55312;SDS011;46892;45.668;11.756;2024-02-14T00:14:31;18.93;;;11.97;;
55312;SDS011;46892;45.668;11.756;2024-02-14T00:16:57;17.53;;;12.00;;
55312;SDS011;46892;45.668;11.756;2024-02-14T00:19:24;19.43;;;12.47;;
55312;SDS011;46892;45.668;11.756;2024-02-14T00:21:50;18.63;;;11.80;;
55312;SDS011;46892;45.668;11.756;2024-02-14T00:24:16;19.37;;;11.30;;
55312;SDS011;46892;45.668;11.756;2024-02-14T00:26:42;16.97;;;9.03;;
55312;SDS011;46892;45.668;11.756;2024-02-14T00:29:08;10.70;;;6.63;;
55312;SDS011;46892;45.668;11.756;2024-02-14T00:31:34;13.23;;;6.73;;
55312;SDS011;46892;45.668;11.756;2024-02-14T00:33:59;11.33;;;7.20;;
55312;SDS011;46892;45.668;11.756;2024-02-14T00:36:25;11.47;;;7.23;;
55312;SDS011;46892;45.668;11.756;2024-02-14T00:38:51;14.03;;;7.97;;
55312;SDS011;46892;45.668;11.756;2024-02-14T00:41:17;11.70;;;7.20;;
55312;SDS011;46892;45.668;11.756;2024-02-14T00:43:42;9.90;;;6.63;;
55312;SDS011;46892;45.668;11.756;2024-02-14T00:46:08;15.27;;;8.93;;
55312;SDS011;46892;45.668;11.756;2024-02-14T00:48:34;11.63;;;6.20;;
55312;SDS011;46892;45.668;11.756;2024-02-14T00:50:59;10.80;;;6.30;;
55312;SDS011;46892;45.668;11.756;2024-02-14T00:53:25;11.80;;;6.67;;
55312;SDS011;46892;45.668;11.756;2024-02-14T00:55:51;15.00;;;9.40;;
55312;SDS011;46892;45.668;11.756;2024-02-14T00:58:17;14.80;;;9.63;;
55312;SDS011;46892;45.668;11.756;2024-02-14T01:00:42;15.67;;;10.37;;
55312;SDS011;46892;45.668;11.756;2024-02-14T01:03:08;15.27;;;10.10;;
55312;SDS011;46892;45.668;11.756;2024-02-14T01:05:37;14.67;;;9.97;;
55312;SDS011;46892;45.668;11.756;2024-02-14T01:08:04;18.27;;;10.93;;
55312;SDS011;46892;45.668;11.756;2024-02-14T01:10:30;17.60;;;11.17;;
55312;SDS011;46892;45.668;11.756;2024-02-14T01:12:56;18.43;;;11.20;;
55312;SDS011;46892;45.668;11.756;2024-02-14T01:15:22;19.03;;;10.87;;
55312;SDS011;46892;45.668;11.756;2024-02-14T01:17:47;18.33;;;12.00;;
55312;SDS011;46892;45.668;11.756;2024-02-14T01:20:13;16.10;;;11.27;;
55312;SDS011;46892;45.668;11.756;2024-02-14T01:22:40;15.93;;;10.33;;
55312;SDS011;46892;45.668;11.756;2024-02-14T01:25:06;16.60;;;10.10;;
55312;SDS011;46892;45.668;11.756;2024-02-14T01:27:32;16.00;;;10.23;;
55312;SDS011;46892;45.668;11.756;2024-02-14T01:29:57;14.13;;;10.23;;
55312;SDS011;46892;45.668;11.756;2024-02-14T01:32:23;14.43;;;10.67;;
55312;SDS011;46892;45.668;11.756;2024-02-14T01:34:49;16.43;;;11.30;;
55312;SDS011;46892;45.668;11.756;2024-02-14T01:37:15;13.33;;;8.77;;
55312;SDS011;46892;45.668;11.756;2024-02-14T01:39:42;15.90;;;9.30;;
55312;SDS011;46892;45.668;11.756;2024-02-14T01:42:07;19.40;;;10.40;;
55312;SDS011;46892;45.668;11.756;2024-02-14T01:44:33;14.97;;;10.70;;
55312;SDS011;46892;45.668;11.756;2024-02-14T01:46:59;13.80;;;9.63;;
55312;SDS011;46892;45.668;11.756;2024-02-14T01:49:26;13.50;;;9.40;;
55312;SDS011;46892;45.668;11.756;2024-02-14T01:51:53;14.40;;;9.70;;
55312;SDS011;46892;45.668;11.756;2024-02-14T01:54:22;13.63;;;8.90;;
55312;SDS011;46892;45.668;11.756;2024-02-14T01:56:49;16.13;;;9.43;;
55312;SDS011;46892;45.668;11.756;2024-02-14T01:59:15;11.97;;;8.70;;
55312;SDS011;46892;45.668;11.756;2024-02-14T02:01:41;12.27;;;8.50;;
55312;SDS011;46892;45.668;11.756;2024-02-14T02:04:07;14.37;;;8.50;;
55312;SDS011;46892;45.668;11.756;2024-02-14T02:06:33;12.87;;;8.30;;
55312;SDS011;46892;45.668;11.756;2024-02-14T02:09:00;12.07;;;8.20;;
55312;SDS011;46892;45.668;11.756;2024-02-14T02:11:26;11.70;;;8.50;;
55312;SDS011;46892;45.668;11.756;2024-02-14T02:13:52;12.67;;;8.27;;
55312;SDS011;46892;45.668;11.756;2024-02-14T02:16:17;12.37;;;7.53;;
55312;SDS011;46892;45.668;11.756;2024-02-14T02:18:44;11.77;;;8.10;;
55312;SDS011;46892;45.668;11.756;2024-02-14T02:21:10;13.17;;;8.40;;
55312;SDS011;46892;45.668;11.756;2024-02-14T02:23:38;11.03;;;7.87;;
55312;SDS011;46892;45.668;11.756;2024-02-14T02:26:05;13.93;;;7.37;;
55312;SDS011;46892;45.668;11.756;2024-02-14T02:28:31;10.43;;;7.70;;
55312;SDS011;46892;45.668;11.756;2024-02-14T02:30:57;12.50;;;7.20;;
55312;SDS011;46892;45.668;11.756;2024-02-14T02:33:23;13.83;;;8.03;;
55312;SDS011;46892;45.668;11.756;2024-02-14T02:35:49;24.40;;;12.43;;
55312;SDS011;46892;45.668;11.756;2024-02-14T02:38:16;14.47;;;9.17;;
55312;SDS011;46892;45.668;11.756;2024-02-14T02:40:43;16.37;;;9.87;;
55312;SDS011;46892;45.668;11.756;2024-02-14T02:43:09;15.10;;;9.83;;
55312;SDS011;46892;45.668;11.756;2024-02-14T02:45:35;14.77;;;8.83;;
55312;SDS011;46892;45.668;11.756;2024-02-14T02:48:01;14.33;;;8.90;;
55312;SDS011;46892;45.668;11.756;2024-02-14T02:50:27;14.13;;;8.93;;
55312;SDS011;46892;45.668;11.756;2024-02-14T02:52:54;15.50;;;8.77;;
55312;SDS011;46892;45.668;11.756;2024-02-14T02:55:22;12.10;;;7.60;;
55312;SDS011;46892;45.668;11.756;2024-02-14T02:57:48;15.33;;;10.83;;
55312;SDS011;46892;45.668;11.756;2024-02-14T03:00:14;12.73;;;8.57;;
55312;SDS011;46892;45.668;11.756;2024-02-14T03:02:41;14.53;;;8.97;;
55312;SDS011;46892;45.668;11.756;2024-02-14T03:05:09;13.33;;;8.43;;
55312;SDS011;46892;45.668;11.756;2024-02-14T03:07:42;13.07;;;8.20;;
55312;SDS011;46892;45.668;11.756;2024-02-14T03:10:13;14.45;;;8.02;;
55312;SDS011;46892;45.668;11.756;2024-02-14T03:12:39;14.53;;;8.17;;
55312;SDS011;46892;45.668;11.756;2024-02-14T03:15:05;12.87;;;8.20;;
55312;SDS011;46892;45.668;11.756;2024-02-14T03:17:35;11.10;;;7.53;;
55312;SDS011;46892;45.668;11.756;2024-02-14T03:20:01;10.60;;;7.00;;
55312;SDS011;46892;45.668;11.756;2024-02-14T03:22:27;10.90;;;6.67;;
55312;SDS011;46892;45.668;11.756;2024-02-14T03:24:52;12.23;;;8.33;;
55312;SDS011;46892;45.668;11.756;2024-02-14T03:27:18;11.73;;;8.40;;
55312;SDS011;46892;45.668;11.756;2024-02-14T03:29:44;9.53;;;6.47;;
55312;SDS011;46892;45.668;11.756;2024-02-14T03:32:12;11.03;;;7.20;;
55312;SDS011;46892;45.668;11.756;2024-02-14T03:34:38;10.97;;;6.87;;
55312;SDS011;46892;45.668;11.756;2024-02-14T03:37:04;10.77;;;6.73;;
55312;SDS011;46892;45.668;11.756;2024-02-14T03:39:32;9.90;;;6.77;;
55312;SDS011;46892;45.668;11.756;2024-02-14T03:41:58;11.93;;;7.03;;
55312;SDS011;46892;45.668;11.756;2024-02-14T03:44:26;10.17;;;6.87;;
55312;SDS011;46892;45.668;11.756;2024-02-14T03:46:51;10.60;;;7.47;;
55312;SDS011;46892;45.668;11.756;2024-02-14T03:49:18;10.97;;;6.77;;
55312;SDS011;46892;45.668;11.756;2024-02-14T03:51:44;11.80;;;6.87;;
55312;SDS011;46892;45.668;11.756;2024-02-14T03:54:11;11.37;;;6.93;;
55312;SDS011;46892;45.668;11.756;2024-02-14T03:56:37;11.67;;;6.90;;
55312;SDS011;46892;45.668;11.756;2024-02-14T03:59:03;9.00;;;6.40;;
55312;SDS011;46892;45.668;11.756;2024-02-14T04:01:30;11.20;;;7.50;;
55312;SDS011;46892;45.668;11.756;2024-02-14T04:03:56;10.67;;;6.67;;
55312;SDS011;46892;45.668;11.756;2024-02-14T04:06:22;12.37;;;6.90;;
55312;SDS011;46892;45.668;11.756;2024-02-14T04:08:48;9.60;;;6.67;;
55312;SDS011;46892;45.668;11.756;2024-02-14T04:11:14;11.30;;;6.80;;
55312;SDS011;46892;45.668;11.756;2024-02-14T04:13:40;10.57;;;6.50;;
55312;SDS011;46892;45.668;11.756;2024-02-14T04:16:06;10.97;;;6.53;;
55312;SDS011;46892;45.668;11.756;2024-02-14T04:18:31;12.00;;;8.60;;
55312;SDS011;46892;45.668;11.756;2024-02-14T04:20:57;11.73;;;6.80;;
55312;SDS011;46892;45.668;11.756;2024-02-14T04:23:23;12.37;;;7.33;;
55312;SDS011;46892;45.668;11.756;2024-02-14T04:25:50;12.90;;;7.20;;
55312;SDS011;46892;45.668;11.756;2024-02-14T04:28:16;11.63;;;7.37;;
55312;SDS011;46892;45.668;11.756;2024-02-14T04:30:41;12.30;;;7.27;;
55312;SDS011;46892;45.668;11.756;2024-02-14T04:33:08;11.07;;;6.80;;
55312;SDS011;46892;45.668;11.756;2024-02-14T04:35:34;9.97;;;5.77;;
55312;SDS011;46892;45.668;11.756;2024-02-14T04:38:00;10.53;;;6.63;;
55312;SDS011;46892;45.668;11.756;2024-02-14T04:40:26;9.57;;;6.60;;
55312;SDS011;46892;45.668;11.756;2024-02-14T04:42:51;11.87;;;6.70;;
55312;SDS011;46892;45.668;11.756;2024-02-14T04:45:17;9.73;;;6.37;;
55312;SDS011;46892;45.668;11.756;2024-02-14T04:47:43;15.53;;;6.27;;
55312;SDS011;46892;45.668;11.756;2024-02-14T04:50:09;9.83;;;6.30;;
55312;SDS011;46892;45.668;11.756;2024-02-14T04:52:35;14.17;;;7.00;;
55312;SDS011;46892;45.668;11.756;2024-02-14T04:55:01;13.50;;;6.23;;
55312;SDS011;46892;45.668;11.756;2024-02-14T04:57:28;9.43;;;5.77;;
55312;SDS011;46892;45.668;11.756;2024-02-14T04:59:54;8.73;;;5.07;;
55312;SDS011;46892;45.668;11.756;2024-02-14T05:02:20;8.23;;;5.50;;
55312;SDS011;46892;45.668;11.756;2024-02-14T05:04:46;9.77;;;5.73;;
55312;SDS011;46892;45.668;11.756;2024-02-14T05:07:11;9.63;;;5.00;;
55312;SDS011;46892;45.668;11.756;2024-02-14T05:09:37;8.77;;;5.30;;
55312;SDS011;46892;45.668;11.756;2024-02-14T05:12:03;7.57;;;4.33;;
55312;SDS011;46892;45.668;11.756;2024-02-14T05:14:29;6.60;;;4.67;;
55312;SDS011;46892;45.668;11.756;2024-02-14T05:16:56;8.63;;;4.57;;
55312;SDS011;46892;45.668;11.756;2024-02-14T05:19:22;7.57;;;3.97;;
55312;SDS011;46892;45.668;11.756;2024-02-14T05:21:47;4.83;;;3.47;;
55312;SDS011;46892;45.668;11.756;2024-02-14T05:24:14;6.77;;;4.27;;
55312;SDS011;46892;45.668;11.756;2024-02-14T05:26:39;5.80;;;4.10;;
55312;SDS011;46892;45.668;11.756;2024-02-14T05:29:05;6.97;;;4.13;;
55312;SDS011;46892;45.668;11.756;2024-02-14T05:31:42;7.70;;;3.90;;
55312;SDS011;46892;45.668;11.756;2024-02-14T05:34:09;8.13;;;4.27;;
55312;SDS011;46892;45.668;11.756;2024-02-14T05:36:35;6.10;;;4.10;;
55312;SDS011;46892;45.668;11.756;2024-02-14T05:39:01;11.17;;;6.20;;
55312;SDS011;46892;45.668;11.756;2024-02-14T05:41:28;7.30;;;4.83;;
55312;SDS011;46892;45.668;11.756;2024-02-14T05:43:53;5.10;;;3.33;;
55312;SDS011;46892;45.668;11.756;2024-02-14T05:46:19;5.10;;;3.00;;
55312;SDS011;46892;45.668;11.756;2024-02-14T05:48:45;7.77;;;3.73;;
55312;SDS011;46892;45.668;11.756;2024-02-14T05:51:11;6.13;;;4.00;;
55312;SDS011;46892;45.668;11.756;2024-02-14T05:53:37;7.10;;;4.33;;
55312;SDS011;46892;45.668;11.756;2024-02-14T05:56:03;7.70;;;4.23;;
55312;SDS011;46892;45.668;11.756;2024-02-14T05:58:29;6.57;;;3.90;;
55312;SDS011;46892;45.668;11.756;2024-02-14T06:00:55;8.87;;;5.30;;
55312;SDS011;46892;45.668;11.756;2024-02-14T06:03:21;6.47;;;4.17;;
55312;SDS011;46892;45.668;11.756;2024-02-14T06:05:47;9.27;;;5.47;;
55312;SDS011;46892;45.668;11.756;2024-02-14T06:08:13;8.97;;;5.27;;
55312;SDS011;46892;45.668;11.756;2024-02-14T06:10:38;9.27;;;4.30;;
55312;SDS011;46892;45.668;11.756;2024-02-14T06:13:04;8.30;;;4.60;;
55312;SDS011;46892;45.668;11.756;2024-02-14T06:15:30;12.50;;;5.03;;
55312;SDS011;46892;45.668;11.756;2024-02-14T06:17:56;10.10;;;5.33;;
55312;SDS011;46892;45.668;11.756;2024-02-14T06:20:22;10.20;;;4.83;;
55312;SDS011;46892;45.668;11.756;2024-02-14T06:22:48;7.00;;;3.50;;
55312;SDS011;46892;45.668;11.756;2024-02-14T06:25:14;6.73;;;3.60;;
55312;SDS011;46892;45.668;11.756;2024-02-14T06:27:41;5.00;;;2.93;;
55312;SDS011;46892;45.668;11.756;2024-02-14T06:30:08;4.07;;;2.60;;
55312;SDS011;46892;45.668;11.756;2024-02-14T06:32:37;4.70;;;2.30;;
55312;SDS011;46892;45.668;11.756;2024-02-14T06:35:03;4.40;;;2.30;;
55312;SDS011;46892;45.668;11.756;2024-02-14T06:37:29;3.53;;;2.27;;
55312;SDS011;46892;45.668;11.756;2024-02-14T06:39:54;6.00;;;2.37;;
55312;SDS011;46892;45.668;11.756;2024-02-14T06:42:20;4.10;;;2.30;;
55312;SDS011;46892;45.668;11.756;2024-02-14T06:44:46;4.37;;;2.57;;
55312;SDS011;46892;45.668;11.756;2024-02-14T06:47:12;6.37;;;4.10;;
55312;SDS011;46892;45.668;11.756;2024-02-14T06:49:38;8.87;;;5.60;;
55312;SDS011;46892;45.668;11.756;2024-02-14T06:52:04;9.53;;;4.20;;
55312;SDS011;46892;45.668;11.756;2024-02-14T06:54:30;8.03;;;4.03;;
55312;SDS011;46892;45.668;11.756;2024-02-14T06:56:56;6.37;;;3.93;;
55312;SDS011;46892;45.668;11.756;2024-02-14T06:59:22;6.83;;;3.80;;
55312;SDS011;46892;45.668;11.756;2024-02-14T07:01:48;7.37;;;3.97;;
55312;SDS011;46892;45.668;11.756;2024-02-14T07:04:14;8.20;;;3.87;;
55312;SDS011;46892;45.668;11.756;2024-02-14T07:06:40;8.47;;;3.30;;
55312;SDS011;46892;45.668;11.756;2024-02-14T07:09:06;6.03;;;3.33;;
55312;SDS011;46892;45.668;11.756;2024-02-14T07:11:32;5.90;;;2.93;;
55312;SDS011;46892;45.668;11.756;2024-02-14T07:13:58;4.97;;;2.33;;
55312;SDS011;46892;45.668;11.756;2024-02-14T07:16:24;4.57;;;2.13;;
55312;SDS011;46892;45.668;11.756;2024-02-14T07:18:49;4.93;;;2.20;;
55312;SDS011;46892;45.668;11.756;2024-02-14T07:21:15;4.97;;;2.23;;
55312;SDS011;46892;45.668;11.756;2024-02-14T07:23:42;8.53;;;3.10;;
55312;SDS011;46892;45.668;11.756;2024-02-14T07:26:07;6.90;;;3.40;;
55312;SDS011;46892;45.668;11.756;2024-02-14T07:28:33;6.67;;;3.47;;
55312;SDS011;46892;45.668;11.756;2024-02-14T07:30:59;9.47;;;3.20;;
55312;SDS011;46892;45.668;11.756;2024-02-14T07:33:25;5.70;;;2.93;;
55312;SDS011;46892;45.668;11.756;2024-02-14T07:35:50;4.97;;;2.53;;
55312;SDS011;46892;45.668;11.756;2024-02-14T07:38:16;4.17;;;2.30;;
55312;SDS011;46892;45.668;11.756;2024-02-14T07:40:42;4.67;;;2.80;;
55312;SDS011;46892;45.668;11.756;2024-02-14T07:43:08;5.63;;;3.17;;
55312;SDS011;46892;45.668;11.756;2024-02-14T07:45:34;4.10;;;2.80;;
55312;SDS011;46892;45.668;11.756;2024-02-14T07:47:59;7.33;;;3.43;;
55312;SDS011;46892;45.668;11.756;2024-02-14T07:50:26;7.87;;;3.10;;
55312;SDS011;46892;45.668;11.756;2024-02-14T07:52:53;5.60;;;3.10;;
55312;SDS011;46892;45.668;11.756;2024-02-14T07:55:19;5.57;;;3.40;;
55312;SDS011;46892;45.668;11.756;2024-02-14T07:57:45;6.50;;;2.77;;
55312;SDS011;46892;45.668;11.756;2024-02-14T08:00:11;8.53;;;3.43;;
55312;SDS011;46892;45.668;11.756;2024-02-14T08:02:37;5.63;;;3.30;;
55312;SDS011;46892;45.668;11.756;2024-02-14T08:05:03;5.73;;;3.63;;
55312;SDS011;46892;45.668;11.756;2024-02-14T08:07:33;9.85;;;4.78;;
55312;SDS011;46892;45.668;11.756;2024-02-14T08:09:59;7.67;;;3.87;;
55312;SDS011;46892;45.668;11.756;2024-02-14T08:12:25;6.17;;;3.33;;
55312;SDS011;46892;45.668;11.756;2024-02-14T08:14:51;6.33;;;3.17;;
55312;SDS011;46892;45.668;11.756;2024-02-14T08:17:17;5.63;;;3.50;;
55312;SDS011;46892;45.668;11.756;2024-02-14T08:19:43;6.80;;;3.60;;
55312;SDS011;46892;45.668;11.756;2024-02-14T08:22:08;7.83;;;4.37;;
55312;SDS011;46892;45.668;11.756;2024-02-14T08:24:34;7.13;;;3.93;;
55312;SDS011;46892;45.668;11.756;2024-02-14T08:27:00;9.63;;;4.30;;
55312;SDS011;46892;45.668;11.756;2024-02-14T08:29:26;9.17;;;4.80;;
55312;SDS011;46892;45.668;11.756;2024-02-14T08:31:51;7.97;;;4.50;;
55312;SDS011;46892;45.668;11.756;2024-02-14T08:34:18;8.40;;;3.70;;
55312;SDS011;46892;45.668;11.756;2024-02-14T08:36:44;6.70;;;3.60;;
55312;SDS011;46892;45.668;11.756;2024-02-14T08:39:10;4.83;;;2.40;;
55312;SDS011;46892;45.668;11.756;2024-02-14T08:41:39;2.53;;;1.47;;
55312;SDS011;46892;45.668;11.756;2024-02-14T08:44:06;3.97;;;1.88;;
55312;SDS011;46892;45.668;11.756;2024-02-14T08:46:32;2.90;;;1.87;;
55312;SDS011;46892;45.668;11.756;2024-02-14T08:48:59;2.70;;;1.70;;
55312;SDS011;46892;45.668;11.756;2024-02-14T08:51:27;10.33;;;3.90;;
55312;SDS011;46892;45.668;11.756;2024-02-14T08:53:54;5.10;;;3.03;;
55312;SDS011;46892;45.668;11.756;2024-02-14T08:56:22;5.53;;;2.30;;
55312;SDS011;46892;45.668;11.756;2024-02-14T08:58:48;3.57;;;2.17;;
55312;SDS011;46892;45.668;11.756;2024-02-14T09:01:14;5.07;;;2.60;;
55312;SDS011;46892;45.668;11.756;2024-02-14T09:03:41;4.37;;;2.60;;
55312;SDS011;46892;45.668;11.756;2024-02-14T09:06:15;5.43;;;2.53;;
55312;SDS011;46892;45.668;11.756;2024-02-14T09:08:45;6.70;;;2.90;;
55312;SDS011;46892;45.668;11.756;2024-02-14T09:11:11;3.77;;;1.53;;
55312;SDS011;46892;45.668;11.756;2024-02-14T09:13:37;3.00;;;1.60;;
55312;SDS011;46892;45.668;11.756;2024-02-14T09:16:06;2.13;;;1.30;;
55312;SDS011;46892;45.668;11.756;2024-02-14T09:18:33;2.57;;;1.47;;
55312;SDS011;46892;45.668;11.756;2024-02-14T09:20:58;4.03;;;1.90;;
55312;SDS011;46892;45.668;11.756;2024-02-14T09:23:26;2.87;;;1.60;;
55312;SDS011;46892;45.668;11.756;2024-02-14T09:25:52;4.27;;;1.73;;
55312;SDS011;46892;45.668;11.756;2024-02-14T09:28:18;2.40;;;1.30;;
55312;SDS011;46892;45.668;11.756;2024-02-14T09:30:44;8.00;;;5.03;;
55312;SDS011;46892;45.668;11.756;2024-02-14T09:33:10;2.33;;;1.50;;
55312;SDS011;46892;45.668;11.756;2024-02-14T09:35:37;2.53;;;1.50;;
55312;SDS011;46892;45.668;11.756;2024-02-14T09:38:09;4.13;;;1.50;;
55312;SDS011;46892;45.668;11.756;2024-02-14T09:40:38;3.43;;;1.67;;
55312;SDS011;46892;45.668;11.756;2024-02-14T09:43:07;6.17;;;2.67;;
55312;SDS011;46892;45.668;11.756;2024-02-14T09:45:42;3.03;;;2.00;;
55312;SDS011;46892;45.668;11.756;2024-02-14T09:48:09;5.43;;;3.63;;
55312;SDS011;46892;45.668;11.756;2024-02-14T09:50:37;2.90;;;2.03;;
55312;SDS011;46892;45.668;11.756;2024-02-14T09:53:04;5.37;;;2.27;;
55312;SDS011;46892;45.668;11.756;2024-02-14T09:55:32;4.60;;;2.30;;
55312;SDS011;46892;45.668;11.756;2024-02-14T09:57:58;3.67;;;2.20;;
55312;SDS011;46892;45.668;11.756;2024-02-14T10:00:29;3.58;;;1.98;;
55312;SDS011;46892;45.668;11.756;2024-02-14T10:02:56;3.13;;;1.70;;
55312;SDS011;46892;45.668;11.756;2024-02-14T10:05:22;8.00;;;2.87;;
55312;SDS011;46892;45.668;11.756;2024-02-14T10:07:48;3.70;;;2.23;;
55312;SDS011;46892;45.668;11.756;2024-02-14T10:10:14;3.23;;;2.00;;
55312;SDS011;46892;45.668;11.756;2024-02-14T10:12:40;7.20;;;2.37;;
55312;SDS011;46892;45.668;11.756;2024-02-14T10:15:07;4.77;;;2.50;;
55312;SDS011;46892;45.668;11.756;2024-02-14T10:17:34;3.80;;;2.30;;
55312;SDS011;46892;45.668;11.756;2024-02-14T10:20:00;3.50;;;2.07;;
55312;SDS011;46892;45.668;11.756;2024-02-14T10:25:03;4.67;;;2.27;;
55312;SDS011;46892;45.668;11.756;2024-02-14T10:27:34;4.57;;;2.07;;
55312;SDS011;46892;45.668;11.756;2024-02-14T10:30:03;4.07;;;2.20;;
55312;SDS011;46892;45.668;11.756;2024-02-14T10:32:37;4.53;;;2.30;;
55312;SDS011;46892;45.668;11.756;2024-02-14T10:35:05;3.87;;;2.30;;
55312;SDS011;46892;45.668;11.756;2024-02-14T10:37:36;4.73;;;2.50;;
55312;SDS011;46892;45.668;11.756;2024-02-14T10:40:02;3.83;;;2.60;;
55312;SDS011;46892;45.668;11.756;2024-02-14T10:42:30;16.93;;;9.33;;
55312;SDS011;46892;45.668;11.756;2024-02-14T10:44:56;7.30;;;3.87;;
55312;SDS011;46892;45.668;11.756;2024-02-14T10:47:23;8.00;;;4.47;;
55312;SDS011;46892;45.668;11.756;2024-02-14T10:49:52;4.47;;;2.20;;
55312;SDS011;46892;45.668;11.756;2024-02-14T10:52:22;4.43;;;2.33;;
55312;SDS011;46892;45.668;11.756;2024-02-14T10:54:54;5.37;;;2.20;;
55312;SDS011;46892;45.668;11.756;2024-02-14T10:57:24;3.80;;;2.17;;
55312;SDS011;46892;45.668;11.756;2024-02-14T10:59:50;6.13;;;2.87;;
55312;SDS011;46892;45.668;11.756;2024-02-14T11:02:18;4.07;;;2.60;;
55312;SDS011;46892;45.668;11.756;2024-02-14T11:04:45;5.33;;;2.53;;
55312;SDS011;46892;45.668;11.756;2024-02-14T11:07:11;5.10;;;2.80;;
55312;SDS011;46892;45.668;11.756;2024-02-14T11:09:38;4.33;;;2.80;;
55312;SDS011;46892;45.668;11.756;2024-02-14T11:12:08;6.23;;;3.23;;
55312;SDS011;46892;45.668;11.756;2024-02-14T11:17:04;3.43;;;2.20;;
55312;SDS011;46892;45.668;11.756;2024-02-14T11:19:34;4.90;;;2.70;;
55312;SDS011;46892;45.668;11.756;2024-02-14T11:22:12;4.40;;;2.73;;
55312;SDS011;46892;45.668;11.756;2024-02-14T11:24:45;5.83;;;2.70;;
55312;SDS011;46892;45.668;11.756;2024-02-14T11:27:14;6.37;;;3.30;;
55312;SDS011;46892;45.668;11.756;2024-02-14T11:29:51;7.00;;;3.60;;
55312;SDS011;46892;45.668;11.756;2024-02-14T11:32:18;5.40;;;3.13;;
55312;SDS011;46892;45.668;11.756;2024-02-14T11:34:52;7.40;;;2.77;;
55312;SDS011;46892;45.668;11.756;2024-02-14T11:37:28;5.70;;;2.90;;
55312;SDS011;46892;45.668;11.756;2024-02-14T11:39:56;6.87;;;3.57;;
55312;SDS011;46892;45.668;11.756;2024-02-14T11:42:23;8.17;;;3.70;;
55312;SDS011;46892;45.668;11.756;2024-02-14T11:44:50;4.07;;;2.80;;
55312;SDS011;46892;45.668;11.756;2024-02-14T11:47:15;4.80;;;2.90;;
55312;SDS011;46892;45.668;11.756;2024-02-14T11:49:41;5.63;;;3.37;;
55312;SDS011;46892;45.668;11.756;2024-02-14T11:52:13;6.77;;;3.97;;
55312;SDS011;46892;45.668;11.756;2024-02-14T11:54:39;5.57;;;3.73;;
55312;SDS011;46892;45.668;11.756;2024-02-14T11:57:10;5.60;;;3.40;;
55312;SDS011;46892;45.668;11.756;2024-02-14T11:59:36;7.57;;;3.97;;
55312;SDS011;46892;45.668;11.756;2024-02-14T12:02:02;8.77;;;4.37;;
55312;SDS011;46892;45.668;11.756;2024-02-14T12:04:29;5.80;;;3.67;;
55312;SDS011;46892;45.668;11.756;2024-02-14T12:06:56;6.33;;;3.90;;
55312;SDS011;46892;45.668;11.756;2024-02-14T12:09:22;6.77;;;4.43;;
55312;SDS011;46892;45.668;11.756;2024-02-14T12:11:48;7.17;;;4.30;;
55312;SDS011;46892;45.668;11.756;2024-02-14T12:14:15;9.37;;;4.17;;
55312;SDS011;46892;45.668;11.756;2024-02-14T12:16:43;6.57;;;4.00;;
55312;SDS011;46892;45.668;11.756;2024-02-14T12:19:13;7.87;;;4.37;;
55312;SDS011;46892;45.668;11.756;2024-02-14T12:21:40;6.87;;;4.30;;
55312;SDS011;46892;45.668;11.756;2024-02-14T12:24:07;8.47;;;4.87;;
55312;SDS011;46892;45.668;11.756;2024-02-14T12:26:34;6.67;;;3.97;;
55312;SDS011;46892;45.668;11.756;2024-02-14T12:29:04;8.70;;;4.70;;
55312;SDS011;46892;45.668;11.756;2024-02-14T12:31:32;9.40;;;5.93;;
55312;SDS011;46892;45.668;11.756;2024-02-14T12:33:58;7.97;;;5.27;;
55312;SDS011;46892;45.668;11.756;2024-02-14T12:36:26;7.73;;;4.87;;
55312;SDS011;46892;45.668;11.756;2024-02-14T12:38:55;7.70;;;5.10;;
55312;SDS011;46892;45.668;11.756;2024-02-14T12:41:21;7.60;;;5.20;;
55312;SDS011;46892;45.668;11.756;2024-02-14T12:43:51;8.40;;;5.50;;
55312;SDS011;46892;45.668;11.756;2024-02-14T12:46:17;10.33;;;5.50;;
55312;SDS011;46892;45.668;11.756;2024-02-14T12:48:43;10.07;;;6.47;;
55312;SDS011;46892;45.668;11.756;2024-02-14T12:51:09;8.37;;;5.57;;
55312;SDS011;46892;45.668;11.756;2024-02-14T12:53:35;9.57;;;6.67;;
55312;SDS011;46892;45.668;11.756;2024-02-14T12:56:01;10.07;;;6.30;;
55312;SDS011;46892;45.668;11.756;2024-02-14T12:58:29;9.30;;;6.13;;
55312;SDS011;46892;45.668;11.756;2024-02-14T13:00:56;8.80;;;6.17;;
55312;SDS011;46892;45.668;11.756;2024-02-14T13:03:23;10.47;;;6.67;;
55312;SDS011;46892;45.668;11.756;2024-02-14T13:05:50;10.23;;;6.80;;
55312;SDS011;46892;45.668;11.756;2024-02-14T13:08:18;10.87;;;6.67;;
55312;SDS011;46892;45.668;11.756;2024-02-14T13:10:44;9.70;;;6.57;;
55312;SDS011;46892;45.668;11.756;2024-02-14T13:13:10;9.67;;;6.87;;
55312;SDS011;46892;45.668;11.756;2024-02-14T13:15:36;10.03;;;7.17;;
55312;SDS011;46892;45.668;11.756;2024-02-14T13:18:02;10.77;;;6.43;;
55312;SDS011;46892;45.668;11.756;2024-02-14T13:20:28;10.67;;;8.13;;
55312;SDS011;46892;45.668;11.756;2024-02-14T13:22:54;10.90;;;6.97;;
55312;SDS011;46892;45.668;11.756;2024-02-14T13:25:20;12.47;;;7.50;;
55312;SDS011;46892;45.668;11.756;2024-02-14T13:27:46;11.80;;;6.80;;
55312;SDS011;46892;45.668;11.756;2024-02-14T13:30:13;10.17;;;7.10;;
55312;SDS011;46892;45.668;11.756;2024-02-14T13:32:39;11.83;;;6.80;;
55312;SDS011;46892;45.668;11.756;2024-02-14T13:35:05;9.43;;;7.13;;
55312;SDS011;46892;45.668;11.756;2024-02-14T13:37:31;10.83;;;7.40;;
55312;SDS011;46892;45.668;11.756;2024-02-14T13:39:58;10.60;;;6.93;;
55312;SDS011;46892;45.668;11.756;2024-02-14T13:42:24;10.37;;;7.10;;
55312;SDS011;46892;45.668;11.756;2024-02-14T13:44:50;11.63;;;7.13;;
55312;SDS011;46892;45.668;11.756;2024-02-14T13:47:19;12.10;;;7.80;;
55312;SDS011;46892;45.668;11.756;2024-02-14T13:49:45;11.03;;;7.67;;
55312;SDS011;46892;45.668;11.756;2024-02-14T13:52:11;11.50;;;8.30;;
55312;SDS011;46892;45.668;11.756;2024-02-14T13:54:37;15.50;;;8.63;;
55312;SDS011;46892;45.668;11.756;2024-02-14T13:57:03;11.27;;;8.30;;
55312;SDS011;46892;45.668;11.756;2024-02-14T13:59:29;12.03;;;7.97;;
55312;SDS011;46892;45.668;11.756;2024-02-14T14:01:54;14.43;;;8.30;;
55312;SDS011;46892;45.668;11.756;2024-02-14T14:04:20;11.27;;;7.67;;
55312;SDS011;46892;45.668;11.756;2024-02-14T14:06:46;11.83;;;7.83;;
55312;SDS011;46892;45.668;11.756;2024-02-14T14:09:12;12.70;;;8.47;;
55312;SDS011;46892;45.668;11.756;2024-02-14T14:11:39;13.73;;;8.17;;
55312;SDS011;46892;45.668;11.756;2024-02-14T14:14:07;13.80;;;7.57;;
55312;SDS011;46892;45.668;11.756;2024-02-14T14:16:33;12.73;;;8.10;;
55312;SDS011;46892;45.668;11.756;2024-02-14T14:19:00;10.90;;;7.60;;
55312;SDS011;46892;45.668;11.756;2024-02-14T14:21:26;13.00;;;7.80;;
55312;SDS011;46892;45.668;11.756;2024-02-14T14:23:52;14.53;;;8.67;;
55312;SDS011;46892;45.668;11.756;2024-02-14T14:26:17;12.70;;;8.67;;
55312;SDS011;46892;45.668;11.756;2024-02-14T14:28:44;12.33;;;8.70;;
55312;SDS011;46892;45.668;11.756;2024-02-14T14:31:11;12.80;;;8.70;;